Time;durP1;ratioP1;P1;durP2;ratioP2;P2;SDS_P1;SDS_P2;PMS_P1;PMS_P2;Temp;Humidity;BMP_temperature;BMP_pressure;BME280_temperature;BME280_humidity;BME280_pressure;Samples;Min_cycle;Max_cycle;Signal;HPM_P1;HPM_P2
2023/08/17 00:01:55;;;;;;;10.77;5.65;;;18.00;99.90;;;;;;5005750;28;20133;-59
2023/08/17 00:04:21;;;;;;;9.98;5.60;;;17.90;99.90;;;;;;5000636;28;20120;-59
2023/08/17 00:06:47;;;;;;;11.68;5.72;;;18.10;99.90;;;;;;5004999;28;20133;-60
2023/08/17 00:09:12;;;;;;;6.32;4.60;;;18.00;99.90;;;;;;5005370;28;20117;-60
2023/08/17 00:11:38;;;;;;;10.05;4.93;;;17.70;99.90;;;;;;4995668;28;20041;-60
2023/08/17 00:14:05;;;;;;;10.85;4.93;;;17.70;99.90;;;;;;5009853;28;20022;-60
2023/08/17 00:16:31;;;;;;;6.50;4.47;;;17.60;99.90;;;;;;4999736;28;20451;-60
2023/08/17 00:18:57;;;;;;;6.43;4.35;;;17.60;99.90;;;;;;5002669;28;20418;-60
2023/08/17 00:21:22;;;;;;;8.30;4.78;;;17.60;99.90;;;;;;5001648;28;20030;-60
2023/08/17 00:23:48;;;;;;;8.40;4.97;;;17.50;99.90;;;;;;4997363;28;20037;-60
2023/08/17 00:26:14;;;;;;;10.32;4.88;;;17.50;99.90;;;;;;5006040;28;20119;-60
2023/08/17 00:28:40;;;;;;;10.15;4.82;;;17.60;99.90;;;;;;5004809;28;20130;-60
2023/08/17 00:31:06;;;;;;;5.93;4.05;;;17.60;99.90;;;;;;5003962;28;20486;-60
2023/08/17 00:33:31;;;;;;;10.07;5.30;;;17.50;99.90;;;;;;5005396;28;20048;-60
2023/08/17 00:35:57;;;;;;;8.27;4.85;;;17.50;99.90;;;;;;5006399;28;20066;-60
2023/08/17 00:38:22;;;;;;;11.35;5.05;;;17.50;99.90;;;;;;5000422;28;20049;-60
2023/08/17 00:40:48;;;;;;;11.43;5.93;;;17.50;99.90;;;;;;5005016;28;20126;-57
2023/08/17 00:43:14;;;;;;;13.57;6.75;;;17.40;99.90;;;;;;5007092;28;20038;-58
2023/08/17 00:45:40;;;;;;;9.60;7.05;;;17.40;99.90;;;;;;5018201;28;20052;-57
2023/08/17 00:48:07;;;;;;;12.75;7.53;;;17.40;99.90;;;;;;5007245;28;20129;-58
2023/08/17 00:50:34;;;;;;;10.80;7.68;;;17.40;99.90;;;;;;5012132;28;20131;-58
2023/08/17 00:53:00;;;;;;;10.43;7.70;;;17.40;99.90;;;;;;5009185;28;20038;-60
2023/08/17 00:55:27;;;;;;;8.95;7.97;;;17.30;99.90;;;;;;5007738;28;20508;-61
2023/08/17 00:57:53;;;;;;;12.05;7.18;;;17.40;99.90;;;;;;5010963;28;20049;-60
2023/08/17 01:00:20;;;;;;;10.60;6.22;;;17.40;99.90;;;;;;5010008;28;20105;-60
2023/08/17 01:02:46;;;;;;;14.70;6.70;;;17.40;99.90;;;;;;5002120;28;20048;-60
2023/08/17 01:05:13;;;;;;;11.10;7.53;;;17.40;99.90;;;;;;4998339;28;20073;-60
2023/08/17 01:07:38;;;;;;;13.35;7.63;;;17.40;99.90;;;;;;5001622;28;20041;-61
2023/08/17 01:10:06;;;;;;;12.75;7.85;;;17.40;99.90;;;;;;5005631;28;20030;-61
2023/08/17 01:12:54;;;;;;;12.15;7.15;;;17.40;99.90;;;;;;5010173;28;20136;-60
2023/08/17 01:15:28;;;;;;;10.35;7.38;;;17.40;99.90;;;;;;5003134;28;20129;-61
2023/08/17 01:18:22;;;;;;;10.75;8.20;;;17.40;99.90;;;;;;5003283;28;20038;-60
2023/08/17 01:20:49;;;;;;;11.23;7.78;;;17.40;99.90;;;;;;5021590;28;20452;-61
2023/08/17 01:23:15;;;;;;;12.75;7.70;;;17.40;99.90;;;;;;5021941;28;20497;-60
2023/08/17 01:25:40;;;;;;;13.05;7.85;;;17.40;99.90;;;;;;5012897;28;20048;-61
2023/08/17 01:28:06;;;;;;;11.02;7.28;;;17.40;99.90;;;;;;5013379;28;20041;-60
2023/08/17 01:31:04;;;;;;;12.93;7.32;;;17.40;99.90;;;;;;5011463;28;20065;-60
2023/08/17 01:33:37;;;;;;;14.23;8.10;;;17.30;99.90;;;;;;5010140;28;20117;-60
2023/08/17 01:36:09;;;;;;;;;;;17.40;99.90;;;;;;5002122;28;20088;-60
2023/08/17 01:38:36;;;;;;;14.70;7.45;;;17.50;99.90;;;;;;5001356;28;20411;-60
2023/08/17 01:41:03;;;;;;;15.73;7.85;;;17.50;99.90;;;;;;5013799;28;20432;-59
2023/08/17 01:43:29;;;;;;;16.30;8.18;;;17.40;99.90;;;;;;4996694;28;20235;-59
2023/08/17 01:45:55;;;;;;;15.93;8.32;;;17.40;99.90;;;;;;4996782;28;20105;-60
2023/08/17 01:48:21;;;;;;;13.35;7.55;;;17.40;99.90;;;;;;4999233;28;20058;-60
2023/08/17 01:50:46;;;;;;;12.02;7.00;;;17.40;99.90;;;;;;5003268;28;20046;-57
2023/08/17 01:53:12;;;;;;;12.70;7.43;;;17.50;99.90;;;;;;5001885;28;20041;-58
2023/08/17 01:55:38;;;;;;;12.65;7.35;;;17.50;99.90;;;;;;4995252;28;20125;-57
2023/08/17 01:58:03;;;;;;;12.43;7.82;;;17.40;99.90;;;;;;5005364;28;20029;-58
2023/08/17 02:00:29;;;;;;;13.25;7.45;;;17.40;99.90;;;;;;5011073;28;20041;-56
2023/08/17 02:02:54;;;;;;;13.23;7.32;;;17.60;99.90;;;;;;5008927;28;20046;-57
2023/08/17 02:05:20;;;;;;;10.60;7.50;;;17.60;99.90;;;;;;4994560;28;20034;-57
2023/08/17 02:07:46;;;;;;;12.70;7.25;;;17.60;99.90;;;;;;5001691;28;20038;-57
2023/08/17 02:10:11;;;;;;;13.68;7.88;;;17.60;99.90;;;;;;5003343;28;20065;-57
2023/08/17 02:12:37;;;;;;;9.32;7.05;;;17.60;99.90;;;;;;5002897;28;20173;-57
2023/08/17 02:15:03;;;;;;;13.48;7.40;;;17.60;99.90;;;;;;4995107;28;20516;-57
2023/08/17 02:17:29;;;;;;;9.07;6.78;;;17.60;99.90;;;;;;5003347;28;20470;-56
2023/08/17 02:19:54;;;;;;;12.70;7.45;;;17.60;99.90;;;;;;5015456;28;20146;-58
2023/08/17 02:22:20;;;;;;;11.98;7.60;;;17.50;99.90;;;;;;5012676;28;20037;-57
2023/08/17 02:24:46;;;;;;;10.90;7.45;;;17.40;99.90;;;;;;4999239;28;20034;-57
2023/08/17 02:27:12;;;;;;;12.15;8.32;;;17.30;99.90;;;;;;5003527;28;20092;-57
2023/08/17 02:29:37;;;;;;;14.77;8.15;;;17.40;99.90;;;;;;5000936;28;20026;-58
2023/08/17 02:32:04;;;;;;;12.18;8.07;;;17.40;99.90;;;;;;5015994;28;20029;-58
2023/08/17 02:34:30;;;;;;;11.10;8.00;;;17.40;99.90;;;;;;5019507;28;20033;-57
2023/08/17 02:36:55;;;;;;;14.85;8.32;;;17.50;99.90;;;;;;5024798;28;20485;-57
2023/08/17 02:39:21;;;;;;;14.68;7.97;;;17.50;99.90;;;;;;5026764;28;20045;-58
2023/08/17 02:41:49;;;;;;;16.52;7.28;;;17.50;99.90;;;;;;5026890;28;20140;-56
2023/08/17 02:44:14;;;;;;;12.88;7.45;;;17.50;99.90;;;;;;5026223;28;20555;-57
2023/08/17 02:46:40;;;;;;;11.05;7.18;;;17.50;99.90;;;;;;5027160;28;20029;-57
2023/08/17 02:49:06;;;;;;;10.48;7.32;;;17.40;99.90;;;;;;5026296;28;20125;-58
2023/08/17 02:51:31;;;;;;;12.95;7.43;;;17.40;99.90;;;;;;5027448;28;20033;-56
2023/08/17 02:53:57;;;;;;;12.40;7.68;;;17.30;99.90;;;;;;5025441;28;20029;-57
2023/08/17 02:56:22;;;;;;;8.02;5.90;;;17.30;99.90;;;;;;5006137;28;20153;-55
2023/08/17 02:58:48;;;;;;;11.00;6.15;;;17.20;99.90;;;;;;5007522;28;20088;-58
2023/08/17 03:01:13;;;;;;;13.70;6.07;;;17.20;99.90;;;;;;5019049;28;20436;-57
2023/08/17 03:03:39;;;;;;;10.50;5.97;;;17.20;99.90;;;;;;5002052;28;20113;-56
2023/08/17 03:06:05;;;;;;;9.98;6.00;;;17.20;99.90;;;;;;5004601;28;20030;-57
2023/08/17 03:08:31;;;;;;;10.52;5.90;;;17.20;99.90;;;;;;5004911;28;20041;-56
2023/08/17 03:10:57;;;;;;;12.10;6.38;;;17.10;99.90;;;;;;5007151;28;20154;-57
2023/08/17 03:13:22;;;;;;;12.10;6.72;;;17.10;99.90;;;;;;5003285;28;21129;-57
2023/08/17 03:15:48;;;;;;;10.13;6.95;;;17.30;99.90;;;;;;5006688;28;20037;-56
2023/08/17 03:18:13;;;;;;;13.55;7.20;;;17.40;99.90;;;;;;5021366;28;20069;-58
2023/08/17 03:20:39;;;;;;;11.57;6.75;;;17.40;99.90;;;;;;5003868;28;20065;-55
2023/08/17 03:23:08;;;;;;;11.65;6.70;;;17.30;99.90;;;;;;5005875;28;20034;-57
2023/08/17 03:25:34;;;;;;;12.93;6.10;;;17.20;99.90;;;;;;5004849;28;20045;-56
2023/08/17 03:28:00;;;;;;;13.10;6.60;;;17.10;99.90;;;;;;5017026;28;20041;-56
2023/08/17 03:30:26;;;;;;;12.63;6.22;;;17.10;99.90;;;;;;4998549;28;20045;-57
2023/08/17 03:32:52;;;;;;;11.57;5.93;;;17.10;99.90;;;;;;5008747;28;20061;-56
2023/08/17 03:35:17;;;;;;;11.30;7.00;;;17.00;99.90;;;;;;5011526;28;20049;-57
2023/08/17 03:37:43;;;;;;;14.25;6.78;;;17.00;99.90;;;;;;5024919;28;20091;-56
2023/08/17 03:40:09;;;;;;;9.63;6.35;;;17.10;99.90;;;;;;5004110;28;20038;-56
2023/08/17 03:42:34;;;;;;;8.88;6.47;;;17.10;99.90;;;;;;5014259;28;20038;-56
2023/08/17 03:45:00;;;;;;;10.65;6.70;;;17.10;99.90;;;;;;5024157;28;20076;-56
2023/08/17 03:47:25;;;;;;;8.85;6.47;;;17.00;99.90;;;;;;5010754;28;20226;-58
2023/08/17 03:49:52;;;;;;;13.35;6.53;;;17.10;99.90;;;;;;5004161;28;20541;-56
2023/08/17 03:52:17;;;;;;;11.63;6.60;;;17.20;99.90;;;;;;5005376;28;20046;-55
2023/08/17 03:54:43;;;;;;;11.85;6.50;;;17.10;99.90;;;;;;5012898;28;20030;-56
2023/08/17 03:57:08;;;;;;;16.65;6.68;;;17.00;99.90;;;;;;5014375;28;20038;-56
2023/08/17 03:59:34;;;;;;;9.18;7.05;;;17.00;99.90;;;;;;5004036;28;20145;-57
2023/08/17 04:02:00;;;;;;;12.85;6.68;;;17.10;99.90;;;;;;5003888;28;20041;-57
2023/08/17 04:04:25;;;;;;;13.60;7.40;;;17.20;99.90;;;;;;5002298;28;20034;-58
2023/08/17 04:06:51;;;;;;;11.90;7.38;;;17.00;99.90;;;;;;5004040;28;20133;-55
2023/08/17 04:09:16;;;;;;;13.13;7.47;;;17.10;99.90;;;;;;5008257;28;20064;-56
2023/08/17 04:11:42;;;;;;;13.10;7.50;;;17.00;99.90;;;;;;5006871;28;20026;-56
2023/08/17 04:14:08;;;;;;;13.13;7.70;;;17.00;99.90;;;;;;5003604;28;20417;-56
2023/08/17 04:16:35;;;;;;;15.23;7.57;;;16.90;99.90;;;;;;5003907;28;20143;-59
2023/08/17 04:19:00;;;;;;;11.68;7.13;;;16.90;99.90;;;;;;5003009;28;20037;-56
2023/08/17 04:21:26;;;;;;;13.40;7.68;;;17.10;99.90;;;;;;5006530;28;20033;-59
2023/08/17 04:23:52;;;;;;;11.18;7.75;;;17.00;99.90;;;;;;5004934;28;20022;-59
2023/08/17 04:26:17;;;;;;;13.48;7.45;;;17.00;99.90;;;;;;5005205;28;20026;-59
2023/08/17 04:28:43;;;;;;;9.57;7.30;;;17.10;99.90;;;;;;4999191;28;20073;-59
2023/08/17 04:31:08;;;;;;;11.82;6.88;;;17.00;99.90;;;;;;5002204;28;20654;-57
2023/08/17 04:33:34;;;;;;;14.40;7.38;;;17.10;99.90;;;;;;5020340;28;20038;-58
2023/08/17 04:36:00;;;;;;;10.73;6.90;;;17.00;99.90;;;;;;5002619;28;20605;-56
2023/08/17 04:38:26;;;;;;;13.70;6.90;;;17.10;99.90;;;;;;4997374;28;20041;-55
2023/08/17 04:40:52;;;;;;;13.30;7.00;;;17.00;99.90;;;;;;5008336;28;20034;-55
2023/08/17 04:43:17;;;;;;;11.40;6.72;;;17.10;99.90;;;;;;5002712;28;20408;-56
2023/08/17 04:45:44;;;;;;;11.27;6.43;;;17.10;99.90;;;;;;5013292;28;20111;-57
2023/08/17 04:48:09;;;;;;;10.73;7.18;;;17.10;99.90;;;;;;5001374;28;20041;-56
2023/08/17 04:50:35;;;;;;;12.43;7.28;;;17.10;99.90;;;;;;4998024;28;20140;-57
2023/08/17 04:53:01;;;;;;;12.10;7.03;;;17.20;99.90;;;;;;5014857;28;20029;-56
2023/08/17 04:55:26;;;;;;;13.57;7.45;;;17.20;99.90;;;;;;5023341;28;20069;-57
2023/08/17 04:57:52;;;;;;;11.52;7.18;;;17.00;99.90;;;;;;5014955;28;20124;-57
2023/08/17 05:00:20;;;;;;;10.52;7.50;;;17.00;99.90;;;;;;5004149;28;20030;-56
2023/08/17 05:02:45;;;;;;;14.60;7.13;;;17.10;99.90;;;;;;4996290;28;20041;-58
2023/08/17 05:05:11;;;;;;;14.45;7.88;;;17.20;99.90;;;;;;5003531;28;20494;-57
2023/08/17 05:07:36;;;;;;;11.32;7.18;;;17.40;99.90;;;;;;5005099;28;20037;-57
2023/08/17 05:10:02;;;;;;;13.23;7.85;;;17.40;99.90;;;;;;5014894;28;20049;-58
2023/08/17 05:12:28;;;;;;;15.00;7.40;;;17.50;99.90;;;;;;5019430;28;20449;-57
2023/08/17 05:14:53;;;;;;;12.48;7.78;;;17.50;99.90;;;;;;5005460;28;20053;-57
2023/08/17 05:17:19;;;;;;;11.48;7.80;;;17.10;99.90;;;;;;5013179;28;20190;-56
2023/08/17 05:19:45;;;;;;;11.20;7.78;;;17.00;99.90;;;;;;5009456;28;20033;-57
2023/08/17 05:22:13;;;;;;;15.70;7.70;;;16.90;99.90;;;;;;5011031;28;20104;-56
2023/08/17 05:24:39;;;;;;;14.20;7.82;;;17.10;99.90;;;;;;5008426;28;20413;-56
2023/08/17 05:27:05;;;;;;;14.43;7.85;;;17.00;99.90;;;;;;5000823;28;20038;-58
2023/08/17 05:29:32;;;;;;;13.05;8.23;;;16.90;99.90;;;;;;5002204;28;20056;-56
2023/08/17 05:31:58;;;;;;;13.55;7.70;;;16.90;99.90;;;;;;5006536;28;20532;-56
2023/08/17 05:34:23;;;;;;;14.90;8.15;;;17.20;99.90;;;;;;5005626;28;20038;-59
2023/08/17 05:36:49;;;;;;;15.70;8.43;;;17.00;99.90;;;;;;5010557;28;20390;-56
2023/08/17 05:39:15;;;;;;;16.30;8.32;;;17.00;99.90;;;;;;5010222;28;20068;-57
2023/08/17 05:41:40;;;;;;;13.20;8.07;;;17.00;99.90;;;;;;5006462;28;20034;-59
2023/08/17 05:44:09;;;;;;;12.90;8.23;;;17.00;99.90;;;;;;5013921;28;20041;-59
2023/08/17 05:46:35;;;;;;;14.88;8.52;;;17.10;99.90;;;;;;5015532;28;20642;-59
2023/08/17 05:49:02;;;;;;;16.67;8.02;;;17.10;99.90;;;;;;5016609;28;20041;-58
2023/08/17 05:51:28;;;;;;;14.23;8.27;;;17.10;99.90;;;;;;5005524;28;20111;-59
2023/08/17 05:53:53;;;;;;;15.48;8.20;;;17.10;99.90;;;;;;5008705;28;20045;-60
2023/08/17 05:56:19;;;;;;;16.58;8.30;;;17.20;99.90;;;;;;4998573;28;20033;-59
2023/08/17 05:58:44;;;;;;;13.02;8.05;;;17.10;99.90;;;;;;5008135;28;20037;-59
2023/08/17 06:01:11;;;;;;;13.00;8.38;;;17.20;99.90;;;;;;5023892;28;20036;-59
2023/08/17 06:03:37;;;;;;;14.85;8.38;;;17.10;99.90;;;;;;5009357;28;20045;-58
2023/08/17 06:06:03;;;;;;;13.98;8.55;;;17.00;99.90;;;;;;5008358;28;20017;-58
2023/08/17 06:08:29;;;;;;;14.05;8.15;;;17.00;99.90;;;;;;5003173;28;20049;-59
2023/08/17 06:10:55;;;;;;;13.07;8.15;;;17.20;99.90;;;;;;5001869;28;20670;-59
2023/08/17 06:13:21;;;;;;;15.30;8.48;;;17.20;99.90;;;;;;5001570;28;20030;-58
2023/08/17 06:15:46;;;;;;;12.65;8.73;;;17.40;99.90;;;;;;5008910;28;20076;-59
2023/08/17 06:18:12;;;;;;;13.13;9.07;;;17.30;99.90;;;;;;5021087;28;20049;-59
2023/08/17 06:20:38;;;;;;;16.90;9.65;;;17.30;99.90;;;;;;5017860;28;20463;-59
2023/08/17 06:23:04;;;;;;;13.98;9.00;;;17.30;99.90;;;;;;5023515;28;20451;-59
2023/08/17 06:25:29;;;;;;;15.10;9.95;;;17.50;99.90;;;;;;5010945;28;20121;-60
2023/08/17 06:27:55;;;;;;;15.43;9.10;;;17.50;99.90;;;;;;5019767;28;20038;-59
2023/08/17 06:30:21;;;;;;;16.33;9.43;;;17.40;99.90;;;;;;5001342;28;20128;-59
2023/08/17 06:32:46;;;;;;;16.73;9.70;;;17.50;99.90;;;;;;4999065;28;20038;-58
2023/08/17 06:35:12;;;;;;;15.55;9.88;;;17.40;99.90;;;;;;5001684;28;20034;-59
2023/08/17 06:37:38;;;;;;;13.60;9.10;;;17.40;99.90;;;;;;5010963;28;20030;-58
2023/08/17 06:40:09;;;;;;;18.65;10.10;;;17.50;99.90;;;;;;5010722;28;20025;-59
2023/08/17 06:42:35;;;;;;;15.60;10.27;;;17.70;99.90;;;;;;5019514;28;20038;-60
2023/08/17 06:45:00;;;;;;;15.65;10.60;;;17.70;99.90;;;;;;5020264;28;20906;-59
2023/08/17 06:47:26;;;;;;;18.08;11.98;;;17.70;99.90;;;;;;5011034;28;20041;-58
2023/08/17 06:49:52;;;;;;;18.02;11.55;;;17.50;99.90;;;;;;4999779;28;20026;-58
2023/08/17 06:52:17;;;;;;;21.33;13.30;;;17.70;99.90;;;;;;5010676;28;20470;-58
2023/08/17 06:54:43;;;;;;;20.00;14.55;;;17.50;99.90;;;;;;5006636;28;20045;-59
2023/08/17 06:57:08;;;;;;;24.25;15.18;;;17.50;99.90;;;;;;5006637;28;20037;-59
2023/08/17 06:59:34;;;;;;;28.83;18.05;;;17.50;99.90;;;;;;5001743;28;20060;-58
2023/08/17 07:02:00;;;;;;;26.65;19.48;;;17.50;99.90;;;;;;5000326;28;20093;-58
2023/08/17 07:04:26;;;;;;;29.25;20.88;;;17.50;99.90;;;;;;5003728;28;20030;-58
2023/08/17 07:06:52;;;;;;;30.05;19.85;;;17.50;99.90;;;;;;4999977;28;20486;-58
2023/08/17 07:09:18;;;;;;;30.35;20.65;;;17.50;99.90;;;;;;5006111;28;20033;-58
2023/08/17 07:11:44;;;;;;;31.00;23.55;;;17.60;99.90;;;;;;5004412;28;20049;-58
2023/08/17 07:14:09;;;;;;;35.72;21.80;;;17.60;99.90;;;;;;5003638;28;20030;-57
2023/08/17 07:16:35;;;;;;;29.90;22.27;;;17.50;99.90;;;;;;4999715;28;20046;-58
2023/08/17 07:19:02;;;;;;;34.60;23.42;;;17.60;99.90;;;;;;4998704;28;20131;-59
2023/08/17 07:21:27;;;;;;;26.70;21.13;;;17.80;99.90;;;;;;5003548;28;20018;-59
2023/08/17 07:23:54;;;;;;;23.75;20.98;;;17.80;99.90;;;;;;5013628;28;20407;-58
2023/08/17 07:26:20;;;;;;;32.30;22.42;;;17.70;99.90;;;;;;5024138;28;20124;-58
2023/08/17 07:28:47;;;;;;;30.80;23.10;;;17.80;99.90;;;;;;5011658;28;20141;-57
2023/08/17 07:31:12;;;;;;;30.20;22.05;;;17.90;99.90;;;;;;5015476;28;20052;-57
2023/08/17 07:33:39;;;;;;;29.70;22.63;;;17.90;99.90;;;;;;5026910;28;20045;-59
2023/08/17 07:36:05;;;;;;;31.58;24.67;;;18.00;99.90;;;;;;5001690;28;20117;-57
2023/08/17 07:38:30;;;;;;;35.85;23.20;;;18.00;99.90;;;;;;4996493;28;20121;-59
2023/08/17 07:40:56;;;;;;;32.88;24.20;;;17.80;99.90;;;;;;4998969;28;20038;-59
2023/08/17 07:43:22;;;;;;;32.53;23.67;;;17.80;99.90;;;;;;4994685;28;20096;-58
2023/08/17 07:45:57;;;;;;;38.20;24.92;;;17.80;99.90;;;;;;4995537;28;20117;-58
2023/08/17 07:48:22;;;;;;;30.23;24.02;;;17.90;99.90;;;;;;4996794;28;20049;-59
2023/08/17 07:50:52;;;;;;;30.80;24.60;;;18.00;99.90;;;;;;5021360;28;20025;-58
2023/08/17 07:53:18;;;;;;;32.85;25.35;;;18.20;99.90;;;;;;5023141;28;20041;-58
2023/08/17 07:55:44;;;;;;;38.13;26.90;;;18.20;99.90;;;;;;5001288;28;20422;-58
2023/08/17 07:58:10;;;;;;;31.95;25.67;;;18.00;99.90;;;;;;5001002;28;20747;-58
2023/08/17 08:00:36;;;;;;;33.67;25.45;;;18.00;99.90;;;;;;5016913;28;20037;-61
2023/08/17 08:03:01;;;;;;;30.13;25.67;;;18.10;99.90;;;;;;5009570;28;20033;-61
2023/08/17 08:05:27;;;;;;;30.20;25.15;;;18.20;99.90;;;;;;5016235;28;20084;-60
2023/08/17 08:07:53;;;;;;;31.80;25.02;;;18.50;99.90;;;;;;5026502;28;20037;-61
2023/08/17 08:10:18;;;;;;;29.83;24.10;;;18.60;99.90;;;;;;5003972;28;20541;-60
2023/08/17 08:12:44;;;;;;;29.92;22.27;;;18.30;99.90;;;;;;5001133;28;20046;-60
2023/08/17 08:15:10;;;;;;;31.08;23.15;;;18.40;99.90;;;;;;4994036;28;20068;-60
2023/08/17 08:17:35;;;;;;;30.30;22.90;;;18.50;99.90;;;;;;4999739;28;20397;-60
2023/08/17 08:20:01;;;;;;;30.15;23.35;;;18.40;99.90;;;;;;5006346;28;20370;-60
2023/08/17 08:22:27;;;;;;;29.77;23.58;;;18.30;99.90;;;;;;5013999;28;20038;-60
2023/08/17 08:24:52;;;;;;;28.27;24.25;;;18.50;99.90;;;;;;5012043;28;20060;-61
2023/08/17 08:27:18;;;;;;;30.50;23.88;;;18.60;99.90;;;;;;5005928;28;20125;-61
2023/08/17 08:29:44;;;;;;;28.20;23.80;;;18.60;99.90;;;;;;5009562;28;20068;-60
2023/08/17 08:32:09;;;;;;;29.88;23.88;;;18.60;99.90;;;;;;5016143;28;20029;-60
2023/08/17 08:34:35;;;;;;;31.27;24.15;;;18.40;99.90;;;;;;5024574;28;20030;-61
2023/08/17 08:37:01;;;;;;;26.27;22.38;;;18.50;99.90;;;;;;4996469;28;20407;-60
2023/08/17 08:39:27;;;;;;;37.35;24.70;;;18.30;99.90;;;;;;5001400;28;20050;-59
2023/08/17 08:41:53;;;;;;;34.10;26.92;;;18.20;99.90;;;;;;4998285;28;20057;-61
2023/08/17 08:44:19;;;;;;;33.25;28.48;;;18.20;99.90;;;;;;4992976;28;20041;-59
2023/08/17 08:46:45;;;;;;;38.15;28.25;;;18.30;99.90;;;;;;5000960;28;20073;-61
2023/08/17 08:49:17;;;;;;;41.42;29.48;;;18.40;99.90;;;;;;4998929;28;20612;-61
2023/08/17 08:51:46;;;;;;;37.08;29.35;;;18.30;99.90;;;;;;5013341;28;20095;-60
2023/08/17 08:54:21;;;;;;;34.95;27.70;;;18.20;99.90;;;;;;5002905;28;20473;-61
2023/08/17 08:56:51;;;;;;;38.10;29.08;;;18.10;99.90;;;;;;5002378;28;20114;-60
2023/08/17 08:59:17;;;;;;;34.72;29.05;;;18.30;99.90;;;;;;5000085;28;20634;-61
2023/08/17 09:01:42;;;;;;;38.72;28.63;;;18.40;99.90;;;;;;5007112;28;20036;-61
2023/08/17 09:04:08;;;;;;;35.65;29.45;;;18.20;99.90;;;;;;5010084;28;20056;-61
2023/08/17 09:06:34;;;;;;;36.78;30.63;;;18.20;99.90;;;;;;5006591;28;20044;-60
2023/08/17 09:09:02;;;;;;;41.25;31.85;;;18.30;99.90;;;;;;5009321;28;20087;-60
2023/08/17 09:11:28;;;;;;;41.40;32.97;;;18.20;99.90;;;;;;5009478;28;20124;-61
2023/08/17 09:13:54;;;;;;;41.70;30.65;;;18.30;99.90;;;;;;5002037;28;20133;-60
2023/08/17 09:16:20;;;;;;;37.15;29.70;;;18.50;99.90;;;;;;5009175;28;20034;-61
2023/08/17 09:18:46;;;;;;;38.97;30.13;;;18.60;99.90;;;;;;5011177;28;20044;-61
2023/08/17 09:21:23;;;;;;;40.08;31.33;;;18.70;99.90;;;;;;4997391;28;20038;-60
2023/08/17 09:23:56;;;;;;;38.97;31.15;;;18.60;99.90;;;;;;4996151;28;20034;-60
2023/08/17 09:26:23;;;;;;;43.85;32.10;;;18.40;99.90;;;;;;5008999;28;20564;-60
2023/08/17 09:28:49;;;;;;;46.58;33.65;;;18.40;99.90;;;;;;5011912;28;20485;-60
2023/08/17 09:31:15;;;;;;;44.38;32.95;;;18.70;99.90;;;;;;5005427;28;20034;-61
2023/08/17 09:33:41;;;;;;;43.08;32.53;;;18.80;99.90;;;;;;5003353;28;20038;-60
2023/08/17 09:36:09;;;;;;;43.92;29.98;;;18.70;99.90;;;;;;4996010;28;20243;-61
2023/08/17 09:38:38;;;;;;;48.33;31.92;;;18.70;99.90;;;;;;4998179;28;20049;-60
2023/08/17 09:41:06;;;;;;;44.53;31.88;;;18.50;99.90;;;;;;4999149;28;20034;-61
2023/08/17 09:43:33;;;;;;;44.92;31.15;;;18.60;99.90;;;;;;5003549;28;20079;-60
2023/08/17 09:46:01;;;;;;;47.78;33.17;;;18.70;99.90;;;;;;5000025;28;20042;-60
2023/08/17 09:48:27;;;;;;;45.53;33.67;;;18.40;99.90;;;;;;5003677;28;20433;-60
2023/08/17 09:50:56;;;;;;;45.60;34.10;;;18.40;99.90;;;;;;5006872;28;20026;-60
2023/08/17 09:53:22;;;;;;;46.28;34.92;;;18.50;99.90;;;;;;5002073;28;20053;-60
2023/08/17 09:55:48;;;;;;;53.35;33.85;;;18.60;99.90;;;;;;4999974;28;20038;-60
2023/08/17 09:58:17;;;;;;;45.35;32.60;;;18.60;99.90;;;;;;4999573;28;20046;-60
2023/08/17 10:01:03;;;;;;;55.45;34.55;;;18.50;99.90;;;;;;4996639;28;20038;-60
2023/08/17 10:03:32;;;;;;;47.40;32.72;;;18.70;99.90;;;;;;5001661;28;20034;-58
2023/08/17 10:06:04;;;;;;;41.60;32.42;;;18.70;99.90;;;;;;5013947;28;20452;-58
2023/08/17 10:08:33;;;;;;;44.10;33.28;;;18.90;99.90;;;;;;5005639;28;20150;-59
2023/08/17 10:11:02;;;;;;;47.47;34.17;;;19.00;99.90;;;;;;5002151;28;20524;-58
2023/08/17 10:13:27;;;;;;;44.90;35.45;;;18.80;99.90;;;;;;5002686;28;20072;-60
2023/08/17 10:16:02;;;;;;;45.17;32.10;;;18.90;99.90;;;;;;5010107;28;20506;-59
2023/08/17 10:18:56;;;;;;;37.97;31.75;;;18.90;99.90;;;;;;5020035;28;20183;-58
2023/08/17 10:21:31;;;;;;;43.67;32.40;;;19.10;99.90;;;;;;5018504;28;20041;-57
2023/08/17 10:23:57;;;;;;;39.33;31.50;;;19.10;99.90;;;;;;5020763;28;20041;-58
2023/08/17 10:26:24;;;;;;;39.80;32.20;;;19.20;99.90;;;;;;5020315;28;20057;-59
2023/08/17 10:28:52;;;;;;;39.33;30.67;;;19.30;99.90;;;;;;5019117;28;20042;-59
2023/08/17 10:31:17;;;;;;;43.42;32.00;;;19.30;99.90;;;;;;5017726;28;20095;-58
2023/08/17 10:33:47;;;;;;;37.30;30.55;;;19.40;99.90;;;;;;5022888;28;20038;-59
2023/08/17 10:36:13;;;;;;;42.55;33.90;;;19.20;99.90;;;;;;4997190;28;20510;-58
2023/08/17 10:38:39;;;;;;;43.45;33.95;;;19.20;99.90;;;;;;5001100;28;20132;-59
2023/08/17 10:41:13;;;;;;;42.08;33.15;;;19.00;99.90;;;;;;5014700;28;20128;-58
2023/08/17 10:43:57;;;;;;;41.28;33.20;;;19.00;99.90;;;;;;5020921;28;20041;-59
2023/08/17 10:46:36;;;;;;;45.30;32.85;;;19.10;99.90;;;;;;4995982;28;20053;-60
2023/08/17 10:49:06;;;;;;;41.58;31.88;;;19.30;99.90;;;;;;4996118;28;20034;-59
2023/08/17 10:51:33;;;;;;;39.72;31.92;;;19.30;99.90;;;;;;5000632;28;20731;-59
2023/08/17 10:54:02;;;;;;;41.90;31.02;;;19.40;99.90;;;;;;5003734;28;20046;-59
2023/08/17 10:56:29;;;;;;;40.17;30.63;;;19.20;99.90;;;;;;5020450;28;20043;-62
2023/08/17 10:58:59;;;;;;;39.20;30.35;;;19.20;99.90;;;;;;5025050;28;20038;-62
2023/08/17 11:01:32;;;;;;;38.63;30.25;;;19.30;99.90;;;;;;5018766;28;20902;-62
2023/08/17 11:04:17;;;;;;;;;;;19.40;99.90;;;;;;5009259;28;20037;-61
2023/08/17 11:06:45;;;;;;;43.63;30.98;;;19.50;99.90;;;;;;5002718;28;20437;-61
2023/08/17 11:09:12;;;;;;;41.30;31.90;;;19.70;99.90;;;;;;4998954;28;20034;-62
2023/08/17 11:11:38;;;;;;;41.97;31.25;;;19.80;99.90;;;;;;5001795;28;20065;-61
2023/08/17 11:14:04;;;;;;;44.13;30.63;;;19.70;99.90;;;;;;5002497;28;20386;-61
2023/08/17 11:16:30;;;;;;;41.83;30.83;;;19.60;99.90;;;;;;5004879;28;20041;-61
2023/08/17 11:18:58;;;;;;;35.90;29.73;;;19.60;99.90;;;;;;5010802;28;20033;-61
2023/08/17 11:21:24;;;;;;;39.05;31.30;;;19.50;99.90;;;;;;5005465;28;20386;-60
2023/08/17 11:23:50;;;;;;;41.42;30.75;;;19.60;99.90;;;;;;5006707;28;20034;-60
2023/08/17 11:26:17;;;;;;;41.20;31.23;;;19.60;99.90;;;;;;5005711;28;20083;-60
2023/08/17 11:28:44;;;;;;;111.88;93.75;;;19.90;99.90;;;;;;5001958;28;20251;-60
2023/08/17 11:31:11;;;;;;;37.35;28.70;;;19.90;99.90;;;;;;5001003;28;20035;-60
2023/08/17 11:33:38;;;;;;;38.78;27.63;;;20.00;99.90;;;;;;5001234;28;20038;-60
2023/08/17 11:36:09;;;;;;;41.40;30.98;;;20.00;99.90;;;;;;5009831;28;20088;-61
2023/08/17 11:38:37;;;;;;;38.88;30.65;;;19.90;99.90;;;;;;5008463;28;20053;-60
2023/08/17 11:41:03;;;;;;;38.47;31.05;;;19.90;99.90;;;;;;5007685;28;20371;-61
2023/08/17 11:43:30;;;;;;;38.25;30.88;;;20.00;99.90;;;;;;5004419;28;20053;-61
2023/08/17 11:45:56;;;;;;;37.42;28.52;;;20.20;99.90;;;;;;5009211;28;20029;-61
2023/08/17 11:48:24;;;;;;;40.30;30.63;;;20.10;99.90;;;;;;5006456;28;20073;-61
2023/08/17 11:50:49;;;;;;;35.40;28.55;;;20.00;99.90;;;;;;5008492;28;20041;-60
2023/08/17 11:53:15;;;;;;;41.03;30.45;;;20.00;99.90;;;;;;5004754;28;20038;-60
2023/08/17 11:55:41;;;;;;;36.78;29.15;;;20.30;99.90;;;;;;5009449;28;20069;-60
2023/08/17 11:58:07;;;;;;;35.78;27.95;;;20.20;99.90;;;;;;5006069;28;20038;-60
2023/08/17 12:00:50;;;;;;;34.05;28.45;;;20.20;99.90;;;;;;5003924;28;20039;-60
2023/08/17 12:03:16;;;;;;;;;;;20.50;99.90;;;;;;5007661;28;20433;-59
2023/08/17 12:05:44;;;;;;;31.73;26.20;;;20.20;99.90;;;;;;5006652;28;19913;-61
2023/08/17 12:08:10;;;;;;;37.38;27.48;;;20.10;99.90;;;;;;5005644;28;20034;-60
2023/08/17 12:10:37;;;;;;;36.00;28.17;;;20.20;99.90;;;;;;5004257;28;20052;-61
2023/08/17 12:13:03;;;;;;;36.03;28.50;;;20.20;99.90;;;;;;5002706;28;20038;-58
2023/08/17 12:15:33;;;;;;;34.47;28.70;;;20.20;99.90;;;;;;5001565;28;20037;-59
2023/08/17 12:18:00;;;;;;;33.47;27.80;;;20.40;99.90;;;;;;5005814;28;20124;-59
2023/08/17 12:20:26;;;;;;;35.83;27.98;;;20.50;99.90;;;;;;5006278;28;20133;-58
2023/08/17 12:22:52;;;;;;;37.00;27.40;;;20.50;99.90;;;;;;5006114;28;20559;-59
2023/08/17 12:25:22;;;;;;;38.35;28.17;;;20.40;99.90;;;;;;5006875;28;20042;-58
2023/08/17 12:27:48;;;;;;;32.35;27.17;;;20.20;99.90;;;;;;5006356;28;20045;-58
2023/08/17 12:30:32;;;;;;;37.33;28.08;;;20.30;99.90;;;;;;5005498;28;20714;-58
2023/08/17 12:33:01;;;;;;;35.58;28.38;;;20.50;99.90;;;;;;4994870;28;20124;-58